YJF weather

Fort Liard Airport
Fort Liard, Northwest Territories, Canada

Public forecast

Using degrees Celsius for public forecast. Weather courtesy of forecast.io.

Current aviation weather report (METAR) for Fort Liard Airport

Report is more than 6 hours old.

Retrieved 2020/02/21 23:00 UTC (2 days ago):

CYJF 212300Z 30003G15KT 230V360 15SM FEW071 SCT120 BKN200 BKN230 08/M07 A2929 RMK AC3AC1CC1CI2 CC TR S00 AFT 12Z 0/LAST STFD OBS/NXT 241500Z SLP928 DENSITY ALT 800FT

Closest aviation forecast (TAF) to Fort Liard Airport

Closest forecast is Fort Nelson Airport, 88.1 nm (163.2 km) SSE. Retrieved 2020/02/23 13:42 UTC (48 minutes ago):

TAF CYYE 231238Z 2313/2401 VRB03KT P6SM SCT080 RMK NXT FCST BY 231900Z